Time;durP1;ratioP1;P1;durP2;ratioP2;P2;SDS_P1;SDS_P2;PMS_P1;PMS_P2;Temp;Humidity;BMP_temperature;BMP_pressure;BME280_temperature;BME280_humidity;BME280_pressure;Samples;Min_cycle;Max_cycle;Signal;HPM_P1;HPM_P2
2021/04/20 00:00:25;;;;;;;18.67;16.33;;;;;;;7.90;69.76;100079.92;1675529;84;21250;-88
2021/04/20 00:02:52;;;;;;;18.57;15.67;;;;;;;7.88;69.89;100073.97;1686040;84;21344;-87
2021/04/20 00:05:20;;;;;;;16.83;15.03;;;;;;;7.91;69.83;100076.28;1676399;84;22332;-87
2021/04/20 00:07:48;;;;;;;19.23;17.30;;;;;;;7.85;70.34;100079.62;1694758;84;21173;-87
2021/04/20 00:10:18;;;;;;;19.53;17.43;;;;;;;7.72;70.62;100073.59;1655445;85;21212;-87
2021/04/20 00:12:47;;;;;;;23.67;19.23;;;;;;;7.60;70.92;100067.84;1691453;84;21114;-87
2021/04/20 00:15:26;;;;;;;25.60;22.27;;;;;;;7.57;71.13;100066.89;1687724;82;21218;-86
2021/04/20 00:17:55;;;;;;;24.13;21.63;;;;;;;7.54;71.12;100067.73;1664107;84;21825;-86
2021/04/20 00:20:23;;;;;;;27.13;24.20;;;;;;;7.54;71.03;100067.73;1684146;84;21308;-87
2021/04/20 00:22:52;;;;;;;29.03;25.00;;;;;;;7.65;70.86;100062.51;1682147;84;21089;-88
2021/04/20 00:25:21;;;;;;;29.87;26.27;;;;;;;7.67;70.78;100053.91;1681619;84;21585;-88
2021/04/20 00:27:49;;;;;;;32.50;25.70;;;;;;;7.60;70.91;100051.94;1659337;84;21340;-86
2021/04/20 00:30:18;;;;;;;28.53;24.23;;;;;;;7.55;71.06;100042.85;1673890;85;21328;-86
2021/04/20 00:32:45;;;;;;;30.50;24.60;;;;;;;7.50;71.19;100046.55;1669993;85;21210;-86
2021/04/20 00:35:13;;;;;;;31.20;23.47;;;;;;;7.42;71.26;100040.77;1664023;84;21812;-88
2021/04/20 00:37:40;;;;;;;23.80;21.07;;;;;;;7.42;71.30;100042.09;1675804;84;21347;-83
2021/04/20 00:40:11;;;;;;;25.17;20.37;;;;;;;7.49;71.05;100040.91;1643246;86;21374;-87
2021/04/20 00:42:53;;;;;;;23.60;20.93;;;;;;;7.44;71.07;100038.80;1682681;84;21165;-88
2021/04/20 00:45:26;;;;;;;24.07;21.50;;;;;;;7.30;71.38;100032.91;1657351;85;21111;-88
2021/04/20 00:48:08;;;;;;;27.10;23.13;;;;;;;7.17;71.90;100028.98;1773325;80;21315;-86
2021/04/20 00:50:40;;;;;;;25.97;23.27;;;;;;;7.04;72.19;100029.22;1712715;82;21283;-88
2021/04/20 00:53:08;;;;;;;25.27;21.37;;;;;;;6.95;72.52;100025.30;1722571;83;21619;-89
2021/04/20 00:55:38;;;;;;;29.20;21.70;;;;;;;6.96;72.61;100026.93;1686837;83;21056;-87
2021/04/20 00:58:08;;;;;;;26.93;22.93;;;;;;;7.06;72.48;100021.41;1634054;86;21723;-88
2021/04/20 01:00:35;;;;;;;27.90;24.73;;;;;;;7.07;72.52;100017.78;1647535;86;21211;-86
2021/04/20 01:03:03;;;;;;;29.00;25.93;;;;;;;7.01;72.72;100009.20;1620287;86;21684;-86
2021/04/20 01:05:37;;;;;;;28.23;25.30;;;;;;;6.98;72.92;100002.91;1631451;86;21207;-87
2021/04/20 01:08:11;;;;;;;28.37;25.27;;;;;;;6.97;73.07;99997.30;1629156;86;21199;-88
2021/04/20 01:10:43;;;;;;;32.17;25.27;;;;;;;6.93;73.02;100007.42;1628955;86;21365;-87
2021/04/20 01:13:11;;;;;;;26.63;22.90;;;;;;;6.95;73.03;99997.95;1656558;84;21258;-87
2021/04/20 01:15:45;;;;;;;26.33;23.27;;;;;;;7.05;72.78;99999.91;1661858;84;21281;-87
2021/04/20 01:18:17;;;;;;;10.50;9.50;;;;;;;7.06;72.80;100004.70;1657582;84;21171;-86
2021/04/20 01:20:49;;;;;;;23.17;20.63;;;;;;;7.01;73.23;99996.77;1657281;85;21198;-87
2021/04/20 01:23:22;;;;;;;28.57;22.13;;;;;;;7.08;73.13;99994.74;1659938;84;21242;-87
2021/04/20 01:25:49;;;;;;;22.33;17.97;;;;;;;7.12;72.94;99989.42;1657809;85;21170;-87
2021/04/20 01:28:16;;;;;;;22.83;19.27;;;;;;;7.13;72.91;99984.45;1658559;85;21206;-88
2021/04/20 01:30:43;;;;;;;25.67;22.83;;;;;;;7.19;72.71;99983.23;1647364;85;21212;-88
2021/04/20 01:33:10;;;;;;;23.07;18.13;;;;;;;7.30;72.44;99973.25;1647335;85;21204;-87
2021/04/20 01:35:37;;;;;;;15.33;13.73;;;;;;;7.37;72.36;99971.55;1669015;84;21185;-88
2021/04/20 01:38:06;;;;;;;15.97;14.33;;;;;;;7.36;72.27;99964.08;1668627;85;21286;-88
2021/04/20 01:40:34;;;;;;;20.47;18.27;;;;;;;7.39;72.15;99965.57;1673079;84;21192;-87
2021/04/20 01:43:03;;;;;;;20.80;18.57;;;;;;;7.38;72.08;99958.59;1679321;84;21250;-87
2021/04/20 01:45:32;;;;;;;18.13;15.67;;;;;;;7.39;72.09;99952.31;1686195;84;21242;-86
2021/04/20 01:48:00;;;;;;;16.77;15.07;;;;;;;7.51;71.72;99957.51;1663132;85;21377;-86
2021/04/20 01:50:27;;;;;;;18.97;16.97;;;;;;;7.66;71.21;99959.39;1637021;87;21320;-86
2021/04/20 01:52:54;;;;;;;22.63;17.90;;;;;;;7.67;71.09;99949.13;1620224;87;21210;-86
2021/04/20 01:55:22;;;;;;;22.00;19.50;;;;;;;7.63;71.17;99955.76;1620323;88;21206;-86
2021/04/20 01:57:53;;;;;;;20.87;17.33;;;;;;;7.57;71.28;99947.53;1619066;88;21215;-86
2021/04/20 02:00:21;;;;;;;21.30;17.60;;;;;;;7.54;71.33;99949.72;1606781;88;21204;-86
2021/04/20 02:02:49;;;;;;;15.30;13.57;;;;;;;7.51;71.37;99949.55;1618620;87;21172;-86
2021/04/20 02:07:37;;;;;;;13.47;12.03;;;;;;;7.68;70.66;99940.14;1809099;78;22875;-87
2021/04/20 02:10:11;;;;;;;12.17;10.77;;;;;;;7.54;70.80;99934.63;1797577;78;21268;-87
2021/04/20 02:12:42;;;;;;;16.20;13.47;;;;;;;7.46;71.06;99937.34;1768747;78;21047;-87
2021/04/20 02:15:14;;;;;;;14.57;12.57;;;;;;;7.35;71.13;99939.91;1763923;79;21163;-88
2021/04/20 02:17:43;;;;;;;13.33;11.93;;;;;;;7.26;71.51;99945.45;1762389;80;21602;-88
2021/04/20 02:20:14;;;;;;;12.83;11.63;;;;;;;7.28;71.69;99946.09;1754251;80;21172;-88
2021/04/20 02:22:45;;;;;;;15.33;12.57;;;;;;;7.23;71.72;99946.61;1749975;80;21601;-87
2021/04/20 02:25:16;;;;;;;13.80;12.40;;;;;;;7.09;72.23;99950.03;1710819;81;21194;-87
2021/04/20 02:27:47;;;;;;;17.93;14.27;;;;;;;6.98;72.50;99948.59;1713918;81;21205;-88
2021/04/20 02:30:15;;;;;;;14.83;13.20;;;;;;;6.90;72.72;99948.14;1720947;81;21253;-87
2021/04/20 02:32:43;;;;;;;13.93;12.43;;;;;;;6.92;72.88;99945.33;1732488;81;21194;-89
2021/04/20 02:35:15;;;;;;;12.93;11.60;;;;;;;7.00;72.67;99946.59;1761805;79;21055;-87
2021/04/20 02:37:44;;;;;;;14.10;12.60;;;;;;;7.02;72.67;99941.94;1752441;80;21324;-88
2021/04/20 02:40:22;;;;;;;14.50;13.07;;;;;;;6.94;72.92;99940.16;1753313;80;21314;-88
2021/04/20 02:43:02;;;;;;;14.60;12.70;;;;;;;6.90;73.11;99938.05;1766879;79;23077;-88
2021/04/20 02:45:32;;;;;;;13.60;12.20;;;;;;;6.85;73.32;99937.23;1703893;82;21264;-88
2021/04/20 02:48:05;;;;;;;13.60;11.97;;;;;;;6.92;73.15;99934.72;1657786;85;21206;-88
2021/04/20 02:50:32;;;;;;;14.47;13.03;;;;;;;6.94;73.16;99928.24;1639376;85;21233;-86
2021/04/20 02:53:00;;;;;;;13.70;12.40;;;;;;;6.92;73.17;99934.22;1654603;85;21366;-87
2021/04/20 02:55:29;;;;;;;14.83;13.43;;;;;;;6.90;73.25;99927.45;1659613;84;21637;-87
2021/04/20 02:57:58;;;;;;;16.60;13.73;;;;;;;6.89;73.25;99927.11;1677942;84;21178;-88
2021/04/20 03:00:26;;;;;;;15.57;13.93;;;;;;;6.97;73.13;99920.46;1679086;84;21094;-86
2021/04/20 03:02:58;;;;;;;19.07;14.73;;;;;;;7.11;72.77;99927.64;1684779;83;21188;-87
2021/04/20 03:05:28;;;;;;;16.83;15.00;;;;;;;7.18;72.66;99925.94;1685210;83;21169;-87
2021/04/20 03:07:56;;;;;;;16.60;14.80;;;;;;;7.18;72.61;99927.27;1659475;83;21192;-87
2021/04/20 03:10:26;;;;;;;18.10;15.33;;;;;;;7.16;72.63;99925.30;1671801;83;21202;-87
2021/04/20 03:12:53;;;;;;;15.43;13.87;;;;;;;7.13;72.56;99920.33;1693457;83;21252;-86
2021/04/20 03:15:20;;;;;;;17.40;15.60;;;;;;;7.14;72.65;99922.00;1693502;84;21159;-87
2021/04/20 03:17:49;;;;;;;14.97;13.40;;;;;;;7.18;72.42;99918.50;1692573;83;21285;-87
2021/04/20 03:20:18;;;;;;;19.80;14.73;;;;;;;7.28;72.29;99923.56;1677900;83;21181;-87
2021/04/20 03:22:48;;;;;;;14.50;13.00;;;;;;;7.27;72.25;99924.07;1618903;86;21123;-87
2021/04/20 03:25:25;;;;;;;14.30;12.87;;;;;;;7.23;72.46;99924.08;1675252;83;21165;-86
2021/04/20 03:27:57;;;;;;;16.63;14.93;;;;;;;7.20;72.52;99931.89;1678528;83;21179;-87
2021/04/20 03:30:29;;;;;;;15.17;13.17;;;;;;;7.19;72.57;99931.55;1675714;83;21159;-87
2021/04/20 03:33:19;;;;;;;15.23;13.60;;;;;;;7.26;72.48;99930.87;1680177;83;21197;-87
2021/04/20 03:36:00;;;;;;;15.17;12.20;;;;;;;7.40;72.09;99927.42;1682787;84;21326;-87
2021/04/20 03:38:58;;;;;;;13.93;12.43;;;;;;;7.46;71.92;99923.23;1672840;83;21215;-87
2021/04/20 03:41:30;;;;;;;13.88;12.55;;;;;;;7.52;72.18;99923.37;1657282;83;21712;-87
2021/04/20 03:44:01;;;;;;;12.47;11.37;;;;;;;7.67;71.72;99918.10;1658749;84;21318;-87
2021/04/20 03:46:41;;;;;;;12.67;11.27;;;;;;;7.87;71.47;99922.38;1673280;86;21216;-87
2021/04/20 03:49:26;;;;;;;13.83;11.83;;;;;;;8.20;70.71;99916.74;1640308;84;21454;-86
2021/04/20 03:51:56;;;;;;;11.23;10.13;;;;;;;8.76;69.26;99918.92;1625450;87;21180;-86
2021/04/20 03:54:25;;;;;;;11.57;10.40;;;;;;;9.38;67.49;99917.52;1682605;84;21184;-87
2021/04/20 03:56:55;;;;;;;13.17;11.97;;;;;;;9.91;65.76;99915.80;1649888;85;21139;-87
2021/04/20 03:59:25;;;;;;;12.13;11.03;;;;;;;10.41;64.32;99912.52;1679770;84;21319;-86
2021/04/20 04:01:56;;;;;;;13.77;12.37;;;;;;;10.87;62.75;99912.41;1638648;85;21065;-87
2021/04/20 04:04:26;;;;;;;13.37;12.10;;;;;;;11.25;61.90;99906.54;1627033;86;21242;-87
2021/04/20 04:06:55;;;;;;;18.17;15.30;;;;;;;11.70;60.83;99904.09;1641341;86;21161;-87
2021/04/20 04:09:24;;;;;;;16.65;13.45;;;;;;;12.15;59.30;99900.75;1636530;87;21726;-85
2021/04/20 04:12:08;;;;;;;15.53;14.18;;;;;;;12.58;57.90;99901.55;1640398;86;21202;-88
2021/04/20 04:14:36;;;;;;;13.80;12.50;;;;;;;12.90;55.88;99898.41;1642203;86;21180;-87
2021/04/20 04:17:07;;;;;;;12.53;11.30;;;;;;;13.13;55.08;99893.02;1639705;86;21262;-86
2021/04/20 04:19:39;;;;;;;12.18;10.95;;;;;;;13.30;53.46;99889.30;1640946;86;21184;-88
2021/04/20 04:22:14;;;;;;;12.75;11.45;;;;;;;13.18;53.99;99892.67;1639941;86;21209;-87
2021/04/20 04:24:47;;;;;;;12.78;11.48;;;;;;;12.91;53.79;99873.31;1667721;84;21500;-89
2021/04/20 04:27:18;;;;;;;12.45;11.20;;;;;;;12.96;54.79;99891.38;1669025;84;21210;-85
2021/04/20 04:29:48;;;;;;;11.18;10.13;;;;;;;13.37;53.98;99884.76;1638842;86;21210;-83
2021/04/20 04:32:19;;;;;;;12.10;10.45;;;;;;;13.80;53.03;99882.12;1664026;84;21194;-84
2021/04/20 04:34:49;;;;;;;10.53;9.63;;;;;;;14.16;51.12;99874.34;1645265;84;21175;-85
2021/04/20 04:37:16;;;;;;;9.70;8.85;;;;;;;14.42;51.21;99881.27;1665034;84;21350;-86
2021/04/20 04:39:45;;;;;;;10.38;9.50;;;;;;;14.72;50.31;99885.35;1644007;85;21214;-86
2021/04/20 04:42:13;;;;;;;9.18;8.38;;;;;;;15.11;49.38;99881.83;1657226;85;21441;-89
2021/04/20 04:45:04;;;;;;;9.05;8.35;;;;;;;15.43;47.54;99884.23;1660828;84;21136;-88
2021/04/20 04:47:42;;;;;;;8.80;7.92;;;;;;;15.46;47.88;99890.46;1649841;85;21226;-87
2021/04/20 04:50:16;;;;;;;9.58;8.75;;;;;;;15.66;47.30;99881.28;1668503;84;21194;-90
2021/04/20 04:52:47;;;;;;;8.75;7.95;;;;;;;15.70;46.89;99877.88;1638600;86;21163;-89
2021/04/20 04:55:17;;;;;;;10.13;9.10;;;;;;;15.33;47.00;99879.43;1657087;84;21205;-88
2021/04/20 04:57:50;;;;;;;7.70;7.20;;;;;;;15.09;48.08;99876.41;1631230;86;21272;-89
2021/04/20 05:00:24;;;;;;;8.65;7.85;;;;;;;15.03;47.95;99881.32;1653070;85;21224;-88
2021/04/20 05:03:01;;;;;;;;;;;;;;;;;;;;;
2021/04/20 05:05:33;;;;;;;9.05;8.35;;;;;;;15.25;47.54;99874.38;1803607;78;23504;-85
2021/04/20 05:08:01;;;;;;;8.83;8.13;;;;;;;15.26;47.46;99872.00;1776071;79;21189;-89
2021/04/20 05:10:28;;;;;;;9.63;8.80;;;;;;;14.82;47.92;99831.14;1753553;79;21743;-88
2021/04/20 05:12:58;;;;;;;9.13;8.20;;;;;;;15.08;48.00;99865.36;1732177;79;21120;-86
2021/04/20 05:15:26;;;;;;;8.78;8.00;;;;;;;15.34;47.61;99864.13;1706512;81;21229;-89
2021/04/20 05:17:55;;;;;;;9.60;8.80;;;;;;;15.63;46.59;99859.70;1726616;80;21309;-88
2021/04/20 05:20:24;;;;;;;10.60;9.60;;;;;;;15.48;46.23;99864.72;1739455;80;21146;-88
2021/04/20 05:22:57;;;;;;;8.50;7.80;;;;;;;14.78;47.57;99860.82;1728057;80;21234;-89
2021/04/20 05:25:34;;;;;;;10.05;8.93;;;;;;;14.12;49.10;99863.78;1739139;80;21221;-88
2021/04/20 05:31:11;;;;;;;9.28;8.45;;;;;;;14.15;50.71;99864.16;1793807;78;21346;-88
2021/04/20 05:33:38;;;;;;;8.68;8.08;;;;;;;14.62;49.58;99870.33;1744783;79;21100;-88
2021/04/20 05:36:43;;;;;;;10.28;9.23;;;;;;;14.95;48.31;99865.83;1758585;80;22685;-89
2021/04/20 05:39:11;;;;;;;8.93;8.13;;;;;;;14.71;48.54;99871.66;1741562;80;21825;-88
2021/04/20 05:41:41;;;;;;;9.68;8.93;;;;;;;14.52;49.36;99870.84;1730107;80;21358;-87
2021/04/20 05:44:16;;;;;;;9.75;8.55;;;;;;;14.50;49.31;99864.86;1737098;80;21201;-89
2021/04/20 05:46:47;;;;;;;8.83;8.00;;;;;;;14.22;50.42;99852.00;1709300;82;21248;-91
2021/04/20 05:49:23;;;;;;;8.15;7.45;;;;;;;13.98;50.23;99863.92;1751290;80;21148;-91
2021/04/20 05:51:54;;;;;;;8.13;7.47;;;;;;;13.78;50.29;99857.41;1732418;80;21325;-89
2021/04/20 05:54:22;;;;;;;7.75;7.05;;;;;;;13.42;51.25;99858.16;1755845;81;21184;-88
2021/04/20 05:56:49;;;;;;;8.28;7.58;;;;;;;13.00;52.62;99858.64;1719989;79;21725;-89
2021/04/20 05:59:17;;;;;;;8.25;7.50;;;;;;;12.77;53.09;99861.03;1724762;82;21276;-88
2021/04/20 06:01:45;;;;;;;7.40;6.70;;;;;;;12.56;53.78;99865.66;1728315;82;21101;-88
2021/04/20 06:04:15;;;;;;;7.55;6.95;;;;;;;12.49;53.87;99862.72;1724222;82;21212;-88
2021/04/20 06:06:43;;;;;;;9.00;7.53;;;;;;;12.35;54.49;99861.44;1722836;82;21184;-85
2021/04/20 06:09:11;;;;;;;9.50;8.15;;;;;;;12.16;54.92;99851.13;1719024;82;21673;-84
2021/04/20 06:11:40;;;;;;;9.38;8.58;;;;;;;11.97;55.68;99848.81;1720596;82;21081;-87
2021/04/20 06:14:08;;;;;;;9.55;8.85;;;;;;;11.96;56.14;99849.86;1727348;82;21357;-87
2021/04/20 06:16:39;;;;;;;10.32;9.35;;;;;;;12.03;56.17;99849.83;1725310;82;21195;-88
2021/04/20 06:19:07;;;;;;;9.73;8.75;;;;;;;12.15;55.99;99852.17;1714541;82;21199;-87
2021/04/20 06:21:36;;;;;;;7.90;7.25;;;;;;;12.09;55.53;99844.97;1707773;82;21157;-87
2021/04/20 06:24:06;;;;;;;10.15;8.63;;;;;;;11.91;56.32;99839.50;1699612;82;21280;-87
2021/04/20 06:26:36;;;;;;;11.08;10.10;;;;;;;11.60;57.63;99839.61;1700700;83;21740;-86
2021/04/20 06:29:06;;;;;;;10.60;9.70;;;;;;;11.33;58.53;99841.48;1697564;83;21179;-86
2021/04/20 06:31:36;;;;;;;13.27;11.87;;;;;;;11.12;59.41;99837.98;1659934;85;21713;-87
2021/04/20 06:34:06;;;;;;;11.10;10.10;;;;;;;10.86;60.13;99836.91;1614244;85;21687;-83
2021/04/20 06:36:33;;;;;;;11.23;10.23;;;;;;;10.75;60.64;99838.02;1628881;86;21207;-83
2021/04/20 06:39:01;;;;;;;9.00;8.30;;;;;;;10.72;60.72;99836.59;1624066;86;21388;-84
2021/04/20 06:41:31;;;;;;;8.60;7.80;;;;;;;10.62;60.83;99839.62;1650535;85;21212;-84
2021/04/20 06:44:28;;;;;;;9.13;7.87;;;;;;;10.37;61.90;99842.00;1646214;85;21200;-85
2021/04/20 06:47:01;;;;;;;6.10;5.70;;;;;;;10.28;62.04;99841.34;1640015;86;21248;-86
2021/04/20 06:49:34;;;;;;;6.50;6.00;;;;;;;10.38;62.00;99832.16;1642227;86;21225;-85
2021/04/20 06:52:10;;;;;;;6.50;6.10;;;;;;;10.28;62.13;99833.35;1677545;84;21159;-87
2021/04/20 06:54:59;;;;;;;7.78;6.53;;;;;;;10.19;61.73;99833.69;1703051;84;21203;-88
2021/04/20 06:57:59;;;;;;;5.97;5.58;;;;;;;10.14;61.72;99832.97;1711140;82;21089;-86
2021/04/20 07:00:30;;;;;;;6.33;5.80;;;;;;;10.17;62.08;99837.91;1713771;82;22365;-86
2021/04/20 07:03:11;;;;;;;5.93;5.47;;;;;;;10.20;62.05;99834.83;1693357;83;21203;-87
2021/04/20 07:05:53;;;;;;;6.73;6.23;;;;;;;10.21;62.07;99832.98;1712684;82;21204;-86
2021/04/20 07:08:54;;;;;;;6.13;5.63;;;;;;;10.29;61.61;99831.50;1722603;82;21175;-92
2021/04/20 07:11:26;;;;;;;5.90;5.50;;;;;;;10.42;61.68;99822.77;1701898;82;21213;-90
2021/04/20 07:13:58;;;;;;;5.27;4.97;;;;;;;10.58;60.94;99826.39;1725400;81;21204;-88
2021/04/20 07:16:44;;;;;;;6.03;4.93;;;;;;;10.65;60.37;99830.41;1727588;82;21344;-89
2021/04/20 07:19:53;;;;;;;4.97;4.63;;;;;;;10.67;60.08;99821.70;1724977;81;21342;-90
2021/04/20 07:22:59;;;;;;;4.92;4.62;;;;;;;10.57;59.90;99791.45;1648863;83;21270;-88
2021/04/20 07:25:58;;;;;;;6.30;4.80;;;;;;;10.95;59.63;99812.74;1714636;82;21637;-90
2021/04/20 07:28:54;;;;;;;4.03;3.73;;;;;;;11.19;59.10;99801.47;1718352;82;21172;-89
2021/04/20 07:31:53;;;;;;;3.80;3.03;;;;;;;11.42;58.66;99801.03;1719207;82;21315;-90
2021/04/20 07:35:38;;;;;;;3.13;2.67;;;;;;;11.64;56.58;99796.29;1697862;79;23758;-89
2021/04/20 07:38:25;;;;;;;3.37;3.17;;;;;;;11.54;55.80;99790.55;1646793;85;21143;-90
2021/04/20 07:41:26;;;;;;;2.67;2.53;;;;;;;11.41;57.42;99806.05;1677629;84;21189;-86
2021/04/20 07:44:30;;;;;;;2.50;2.40;;;;;;;11.39;56.40;99788.62;1650995;84;21318;-91
2021/04/20 07:47:14;;;;;;;2.20;2.10;;;;;;;11.34;55.33;99783.91;1678823;84;21628;-92
2021/04/20 07:50:15;;;;;;;2.73;2.50;;;;;;;11.31;54.59;99786.98;1678867;84;21156;-90
2021/04/20 07:52:51;;;;;;;3.40;3.20;;;;;;;11.19;55.83;99788.63;1676402;84;21195;-91
2021/04/20 07:55:32;;;;;;;3.40;3.20;;;;;;;11.06;56.58;99788.94;1676108;81;21203;-91
2021/04/20 07:58:11;;;;;;;3.50;3.20;;;;;;;11.02;56.96;99778.38;1635885;86;21686;-88
2021/04/20 08:01:16;;;;;;;3.40;3.10;;;;;;;10.99;56.44;99780.11;1646758;85;21122;-91
2021/04/20 08:03:54;;;;;;;2.97;2.83;;;;;;;10.97;56.82;99779.50;1638001;85;21640;-91
2021/04/20 08:06:27;;;;;;;3.57;3.30;;;;;;;10.86;57.28;99777.44;1633581;87;21707;-92
2021/04/20 08:09:10;;;;;;;4.40;4.10;;;;;;;10.77;58.36;99793.32;1652600;86;21771;-90
2021/04/20 08:11:48;;;;;;;4.30;3.77;;;;;;;10.78;58.71;99772.31;1616985;85;21309;-91
2021/04/20 08:15:00;;;;;;;3.90;3.70;;;;;;;10.78;58.95;99781.13;1693817;84;21688;-88
2021/04/20 08:17:51;;;;;;;4.20;3.83;;;;;;;10.80;58.92;99775.59;1674897;84;21339;-86
2021/04/20 08:20:26;;;;;;;4.00;3.80;;;;;;;10.79;59.22;99783.27;1671325;84;21191;-87
2021/04/20 08:22:56;;;;;;;5.40;5.00;;;;;;;10.75;59.01;99784.71;1641357;85;21130;-86
2021/04/20 08:25:32;;;;;;;4.17;3.97;;;;;;;10.70;59.01;99786.14;1605585;87;21770;-89
2021/04/20 08:28:41;;;;;;;4.57;4.37;;;;;;;10.68;59.08;99784.20;1622865;86;21192;-92
2021/04/20 08:31:22;;;;;;;4.93;4.53;;;;;;;10.70;59.04;99791.48;1628164;87;21819;-89
2021/04/20 08:33:59;;;;;;;5.37;4.80;;;;;;;10.64;59.84;99783.45;1683852;83;21122;-89
2021/04/20 08:37:04;;;;;;;4.47;4.17;;;;;;;10.64;59.96;99779.45;1651747;85;21260;-90
2021/04/20 08:39:57;;;;;;;6.33;5.73;;;;;;;10.67;59.76;99782.53;1647400;84;21595;-86
2021/04/20 08:42:52;;;;;;;5.33;4.83;;;;;;;10.68;60.14;99785.53;1675907;84;21166;-87
2021/04/20 08:45:28;;;;;;;5.80;5.20;;;;;;;10.55;59.95;99764.67;1652690;84;21218;-88
2021/04/20 08:48:25;;;;;;;5.50;5.10;;;;;;;10.72;59.36;99781.95;1648462;86;21180;-89
2021/04/20 08:51:28;;;;;;;7.72;5.65;;;;;;;10.61;59.86;99773.22;1657222;86;21805;-89
2021/04/20 08:54:19;;;;;;;6.10;5.63;;;;;;;10.62;60.41;99784.98;1650366;85;21361;-90
2021/04/20 08:57:04;;;;;;;4.70;4.40;;;;;;;10.69;60.17;99785.01;1660513;83;21116;-88
2021/04/20 09:00:04;;;;;;;6.27;5.83;;;;;;;10.71;60.14;99782.44;1657157;85;21198;-88
2021/04/20 09:02:48;;;;;;;5.83;5.33;;;;;;;10.79;59.98;99772.61;1675186;84;21758;-89
2021/04/20 09:05:45;;;;;;;;;;;;;;;;;;;;;
2021/04/20 09:08:44;;;;;;;5.83;5.43;;;;;;;10.88;59.79;99764.73;1762969;79;23107;-88
2021/04/20 09:11:20;;;;;;;4.77;4.47;;;;;;;10.89;59.58;99771.19;1781110;80;21205;-88
2021/04/20 09:14:08;;;;;;;5.50;5.10;;;;;;;10.99;59.48;99764.11;1746552;81;21215;-85
2021/04/20 09:17:02;;;;;;;6.50;5.90;;;;;;;11.06;59.48;99774.80;1729198;82;21165;-86
2021/04/20 09:19:54;;;;;;;5.17;4.77;;;;;;;11.07;58.75;99769.23;1727940;82;21213;-86
2021/04/20 09:22:50;;;;;;;8.17;5.33;;;;;;;11.14;58.37;99760.44;1719232;81;21232;-88
2021/04/20 09:25:52;;;;;;;5.40;4.90;;;;;;;11.23;57.43;99753.34;1806820;77;22940;-87
2021/04/20 09:28:27;;;;;;;5.07;4.77;;;;;;;11.23;57.30;99759.20;1818281;78;21776;-90
2021/04/20 09:31:06;;;;;;;;;;;;;;;11.30;57.09;99751.48;1807358;78;21140;-87
2021/04/20 09:33:52;;;;;;;6.73;6.13;;;;;;;11.38;56.97;99745.64;1791580;77;20183;-89
2021/04/20 09:36:23;;;;;;;5.07;4.70;;;;;;;11.41;57.16;99750.02;1778379;80;21246;-87
2021/04/20 09:38:51;;;;;;;5.87;5.43;;;;;;;11.44;56.98;99742.13;1752974;80;21199;-87
2021/04/20 09:41:33;;;;;;;5.63;5.23;;;;;;;11.47;57.48;99737.20;1739049;81;21167;-87
2021/04/20 09:44:32;;;;;;;5.75;5.37;;;;;;;11.59;56.81;99736.03;1746660;81;21179;-87
2021/04/20 09:47:23;;;;;;;;;;;;;;;11.63;55.93;99728.42;1746237;80;21657;-89
2021/04/20 09:50:08;;;;;;;5.63;5.23;;;;;;;11.52;55.31;99721.06;1754739;81;20291;-89
2021/04/20 09:53:06;;;;;;;4.87;4.60;;;;;;;11.33;56.44;99736.91;1748839;81;21179;-87
2021/04/20 09:55:51;;;;;;;5.30;5.00;;;;;;;11.23;56.79;99719.99;1749217;81;21103;-87
2021/04/20 09:58:21;;;;;;;6.13;5.73;;;;;;;11.14;57.17;99720.42;1757769;81;21292;-88
2021/04/20 10:00:52;;;;;;;6.63;6.07;;;;;;;11.02;57.17;99717.53;1752592;81;21180;-89
2021/04/20 10:03:51;;;;;;;4.77;4.47;;;;;;;10.96;57.73;99721.84;1761470;80;21159;-90
2021/04/20 10:06:50;;;;;;;6.23;5.07;;;;;;;10.95;58.08;99706.89;1806068;79;23049;-91
2021/04/20 10:09:33;;;;;;;6.33;5.10;;;;;;;10.94;57.41;99709.23;1810329;78;21306;-91
2021/04/20 10:12:50;;;;;;;6.80;5.67;;;;;;;10.95;57.30;99705.56;1736078;80;21185;-90
2021/04/20 10:15:41;;;;;;;5.53;5.13;;;;;;;10.91;57.21;99708.34;1725272;81;21199;-87
2021/04/20 10:18:26;;;;;;;5.33;4.83;;;;;;;10.96;57.10;99699.70;1685264;83;21211;-88
2021/04/20 10:21:10;;;;;;;4.83;4.53;;;;;;;11.12;56.68;99693.14;1692110;84;21628;-88
2021/04/20 10:24:10;;;;;;;5.10;4.50;;;;;;;11.28;55.67;99692.19;1659099;83;21121;-88
2021/04/20 10:27:03;;;;;;;5.13;4.73;;;;;;;11.36;55.33;99687.63;1695244;83;21170;-89
2021/04/20 10:29:47;;;;;;;4.80;4.47;;;;;;;11.00;55.31;99623.59;1693574;83;21234;-86
2021/04/20 10:32:21;;;;;;;4.57;4.27;;;;;;;11.40;55.55;99682.20;1666135;85;21781;-86
2021/04/20 10:34:51;;;;;;;5.90;4.77;;;;;;;11.39;54.72;99688.55;1672268;83;21204;-87
2021/04/20 10:37:33;;;;;;;6.13;5.63;;;;;;;11.42;55.07;99688.14;1687058;83;21240;-89
2021/04/20 10:40:07;;;;;;;5.40;5.00;;;;;;;11.47;54.29;99689.16;1689756;83;21222;-85
2021/04/20 10:42:38;;;;;;;5.17;4.73;;;;;;;11.47;54.19;99695.83;1688668;83;21193;-86
2021/04/20 10:45:08;;;;;;;5.97;4.93;;;;;;;11.37;54.86;99681.28;1693562;83;21127;-84
2021/04/20 10:47:39;;;;;;;4.67;4.37;;;;;;;11.36;54.82;99683.13;1693145;83;21337;-87
2021/04/20 10:50:08;;;;;;;4.87;4.57;;;;;;;11.38;54.72;99690.41;1680207;83;21824;-85
2021/04/20 10:52:38;;;;;;;5.90;5.42;;;;;;;11.41;54.80;99686.49;1687830;83;21250;-88
2021/04/20 10:55:11;;;;;;;5.23;4.73;;;;;;;11.46;54.87;99681.36;1687359;83;21202;-87
2021/04/20 10:57:42;;;;;;;4.43;4.13;;;;;;;11.54;53.98;99682.97;1636898;86;21211;-87
2021/04/20 11:00:15;;;;;;;4.47;4.17;;;;;;;11.55;53.47;99681.95;1658373;85;21206;-89
2021/04/20 11:02:52;;;;;;;5.10;4.80;;;;;;;11.58;53.68;99684.19;1679319;83;21194;-87
2021/04/20 11:05:22;;;;;;;4.92;4.62;;;;;;;11.57;54.23;99682.56;1682893;84;21207;-87
2021/04/20 11:07:52;;;;;;;4.83;4.53;;;;;;;11.53;54.68;99684.83;1692465;84;21683;-93
2021/04/20 11:13:09;;;;;;;4.70;4.40;;;;;;;11.52;54.10;99677.84;1727873;79;23502;-90
2021/04/20 11:15:38;;;;;;;6.83;4.80;;;;;;;11.53;53.93;99674.64;1727501;82;21223;-92
2021/04/20 11:18:12;;;;;;;5.30;4.77;;;;;;;11.58;53.57;99674.84;1710172;82;21184;-90
2021/04/20 11:20:47;;;;;;;4.70;4.40;;;;;;;11.61;53.12;99667.23;1723797;82;21180;-90
2021/04/20 11:23:24;;;;;;;4.90;4.60;;;;;;;11.63;53.28;99671.03;1698617;82;21999;-90
2021/04/20 11:26:25;;;;;;;4.25;3.95;;;;;;;11.67;53.65;99666.91;1811234;78;22899;-90
2021/04/20 11:29:02;;;;;;;4.77;4.33;;;;;;;11.64;53.70;99660.64;1784369;80;21163;-93
2021/04/20 11:31:40;;;;;;;7.80;5.03;;;;;;;11.69;53.91;99663.50;1760979;78;21287;-90
2021/04/20 11:34:20;;;;;;;5.23;4.83;;;;;;;11.78;53.69;99662.23;1748222;76;21196;-92
2021/04/20 11:37:10;;;;;;;4.73;4.43;;;;;;;11.85;52.79;99671.03;1720669;81;21208;-90
2021/04/20 11:40:02;;;;;;;4.65;4.35;;;;;;;11.82;52.81;99655.43;1719164;81;21165;-91
2021/04/20 11:42:42;;;;;;;5.53;5.12;;;;;;;11.83;52.69;99654.41;1733124;82;21205;-90
2021/04/20 11:45:17;;;;;;;3.90;3.70;;;;;;;11.88;51.93;99653.27;1692748;83;21148;-92
2021/04/20 11:48:11;;;;;;;4.83;4.43;;;;;;;11.91;52.24;99653.90;1700291;82;21177;-89
2021/04/20 11:50:51;;;;;;;5.45;3.90;;;;;;;11.90;51.70;99653.58;1678005;83;21240;-90
2021/04/20 11:53:21;;;;;;;4.13;3.77;;;;;;;11.91;51.84;99645.89;1662100;84;21238;-93
2021/04/20 11:55:56;;;;;;;4.53;4.30;;;;;;;11.93;51.74;99645.16;1700593;83;21111;-91
2021/04/20 11:58:39;;;;;;;4.80;4.50;;;;;;;11.92;52.92;99639.50;1732261;81;21804;-92
2021/04/20 12:01:21;;;;;;;4.13;3.90;;;;;;;11.94;53.62;99638.77;1731604;80;21126;-90
2021/04/20 12:03:57;;;;;;;5.12;4.70;;;;;;;12.01;54.56;99628.87;1750078;80;21205;-92
2021/04/20 12:06:53;;;;;;;8.88;5.95;;;;;;;12.03;54.56;99615.59;1742725;81;21209;-91
2021/04/20 12:09:28;;;;;;;4.83;4.53;;;;;;;12.03;54.49;99626.27;1744182;81;21163;-92
2021/04/20 12:12:03;;;;;;;4.60;4.03;;;;;;;12.04;54.76;99628.45;1725239;81;21065;-87
2021/04/20 12:14:39;;;;;;;;;;;;;;;12.04;54.59;99619.91;1749292;80;21325;-80
2021/04/20 12:17:06;;;;;;;5.80;5.30;;;;;;;12.05;54.38;99622.89;1739769;81;20195;-83
2021/04/20 12:19:36;;;;;;;5.20;4.80;;;;;;;11.98;53.91;99618.59;1712206;82;21194;-81
2021/04/20 12:22:06;;;;;;;5.40;5.00;;;;;;;11.90;54.52;99608.19;1675408;84;21519;-83
2021/04/20 12:24:38;;;;;;;4.33;4.10;;;;;;;11.84;54.86;99607.16;1666103;84;21189;-83